createdAt,value
2017-08-31T00:00:14.935Z,90.50
2017-08-31T00:02:41.428Z,90.55
2017-08-31T00:05:07.968Z,90.30
2017-08-31T00:07:34.464Z,90.25
2017-08-31T00:10:00.957Z,90.38
2017-08-31T00:12:27.530Z,90.92
2017-08-31T00:14:54.010Z,90.69
2017-08-31T00:17:20.456Z,90.60
2017-08-31T00:19:47.240Z,90.95
2017-08-31T00:22:13.881Z,90.90
2017-08-31T00:24:40.506Z,90.93
2017-08-31T00:27:07.096Z,90.91
2017-08-31T00:29:33.799Z,90.93
2017-08-31T00:32:00.227Z,90.56
2017-08-31T00:34:26.886Z,90.32
2017-08-31T00:36:53.367Z,90.62
2017-08-31T00:39:19.881Z,90.76
2017-08-31T00:41:46.420Z,91.18
2017-08-31T00:44:13.008Z,91.28
2017-08-31T00:46:39.632Z,91.63
2017-08-31T00:49:06.220Z,91.51
2017-08-31T00:51:32.718Z,91.59
2017-08-31T00:53:59.332Z,91.66
2017-08-31T00:56:25.878Z,91.79
2017-08-31T00:58:52.366Z,91.66
2017-08-31T01:01:19.063Z,91.77
2017-08-31T01:03:45.703Z,92.03
2017-08-31T01:06:12.316Z,92.04
2017-08-31T01:08:38.979Z,92.25
2017-08-31T01:11:05.410Z,92.35
2017-08-31T01:13:31.899Z,92.29
2017-08-31T01:15:58.337Z,92.25
2017-08-31T01:18:24.876Z,92.45
2017-08-31T01:20:51.545Z,92.52
2017-08-31T01:23:18.065Z,92.30
2017-08-31T01:25:44.679Z,92.41
2017-08-31T01:28:11.122Z,92.16
2017-08-31T01:30:37.539Z,92.18
2017-08-31T01:33:04.104Z,92.08
2017-08-31T01:35:30.771Z,92.03
2017-08-31T01:37:57.388Z,91.76
2017-08-31T01:40:24.005Z,91.60
2017-08-31T01:42:50.687Z,91.67
2017-08-31T01:45:17.321Z,91.19
2017-08-31T01:47:43.961Z,90.96
2017-08-31T01:50:10.570Z,90.95
2017-08-31T01:52:37.234Z,90.82
2017-08-31T01:55:03.875Z,90.61
2017-08-31T01:57:30.491Z,90.73
2017-08-31T01:59:57.111Z,90.70
2017-08-31T02:02:23.659Z,90.25
2017-08-31T02:04:50.172Z,90.47
2017-08-31T02:07:16.860Z,90.91
2017-08-31T02:09:43.497Z,91.41
2017-08-31T02:12:10.126Z,91.50
2017-08-31T02:14:36.653Z,91.38
2017-08-31T02:17:03.411Z,91.42
2017-08-31T02:19:29.845Z,91.52
2017-08-31T02:21:56.467Z,91.56
2017-08-31T02:24:23.082Z,91.70
2017-08-31T02:26:49.624Z,91.55
2017-08-31T02:29:16.141Z,91.78
2017-08-31T02:31:42.685Z,91.76
2017-08-31T02:34:08.995Z,91.87
2017-08-31T02:36:35.546Z,92.00
2017-08-31T02:39:02.110Z,91.93
2017-08-31T02:41:28.770Z,92.01
2017-08-31T02:43:55.203Z,92.01
2017-08-31T02:46:21.840Z,91.74
2017-08-31T02:48:48.453Z,91.83
2017-08-31T02:51:14.926Z,92.12
2017-08-31T02:53:41.345Z,92.29
2017-08-31T02:56:07.781Z,92.34
2017-08-31T02:58:34.274Z,92.41
2017-08-31T03:01:01.055Z,92.38
2017-08-31T03:03:27.652Z,92.49
2017-08-31T03:05:54.332Z,92.65
2017-08-31T03:08:20.911Z,92.93
2017-08-31T03:10:47.608Z,92.75
2017-08-31T03:13:14.098Z,92.80
2017-08-31T03:15:40.885Z,92.79
2017-08-31T03:18:07.504Z,92.67
2017-08-31T03:20:33.985Z,93.00
2017-08-31T03:23:00.537Z,92.83
2017-08-31T03:25:27.028Z,92.93
2017-08-31T03:27:53.660Z,92.71
2017-08-31T03:30:20.063Z,92.52
2017-08-31T03:32:46.738Z,92.61
2017-08-31T03:35:13.349Z,92.67
2017-08-31T03:37:39.888Z,92.58
2017-08-31T03:40:06.240Z,92.63
2017-08-31T03:42:32.874Z,92.71
2017-08-31T03:44:59.317Z,92.61
2017-08-31T03:47:25.743Z,92.73
2017-08-31T03:49:52.349Z,92.58
2017-08-31T03:52:18.867Z,92.35
2017-08-31T03:54:45.311Z,91.72
2017-08-31T03:57:11.751Z,91.73
2017-08-31T03:59:38.527Z,91.48
2017-08-31T04:02:05.006Z,89.11
2017-08-31T04:04:31.395Z,85.79
2017-08-31T04:06:58.032Z,83.37
2017-08-31T04:09:24.630Z,78.79
2017-08-31T04:11:51.271Z,76.14
2017-08-31T04:14:17.745Z,74.37
2017-08-31T04:16:44.178Z,72.43
2017-08-31T04:19:10.608Z,68.99
2017-08-31T04:21:37.095Z,66.60
2017-08-31T04:24:03.539Z,64.10
2017-08-31T04:26:29.981Z,61.79
2017-08-31T04:28:56.492Z,59.73
2017-08-31T04:31:22.976Z,58.52
2017-08-31T04:33:49.618Z,56.90
2017-08-31T04:36:16.245Z,55.26
2017-08-31T04:38:42.738Z,54.26
2017-08-31T04:41:09.205Z,51.65
2017-08-31T04:43:35.509Z,50.45
2017-08-31T04:46:01.809Z,49.38
2017-08-31T04:48:28.126Z,47.46
2017-08-31T04:50:54.517Z,47.79
2017-08-31T04:53:20.824Z,47.12
2017-08-31T04:55:47.144Z,45.31
2017-08-31T04:58:13.508Z,46.11
2017-08-31T05:00:39.794Z,45.90
2017-08-31T05:03:06.113Z,43.57
2017-08-31T05:05:32.470Z,42.58
2017-08-31T05:07:58.795Z,39.69
2017-08-31T05:10:25.112Z,38.20
2017-08-31T05:12:51.471Z,36.00
2017-08-31T05:15:17.770Z,35.18
2017-08-31T05:17:44.095Z,33.77
2017-08-31T05:20:10.444Z,34.09
2017-08-31T05:22:36.749Z,34.34
2017-08-31T05:25:03.068Z,33.88
2017-08-31T05:27:29.435Z,33.06
2017-08-31T05:29:55.725Z,33.58
2017-08-31T05:32:22.034Z,33.06
2017-08-31T05:34:48.394Z,32.59
2017-08-31T05:37:14.708Z,33.08
2017-08-31T05:39:41.013Z,32.62
2017-08-31T05:42:07.379Z,32.65
2017-08-31T05:44:33.693Z,34.09
2017-08-31T05:46:59.991Z,34.15
2017-08-31T05:49:26.326Z,33.27
2017-08-31T05:51:52.628Z,32.45
2017-08-31T05:54:18.931Z,32.97
2017-08-31T05:56:45.305Z,32.82
2017-08-31T05:59:11.599Z,31.14
2017-08-31T06:01:37.906Z,30.12
2017-08-31T06:04:04.284Z,31.05
2017-08-31T06:06:30.615Z,29.84
2017-08-31T06:08:56.934Z,30.80
2017-08-31T06:11:23.293Z,29.51
2017-08-31T06:13:49.589Z,29.01
2017-08-31T06:16:15.900Z,28.55
2017-08-31T06:18:42.272Z,29.20
2017-08-31T06:21:08.590Z,31.06
2017-08-31T06:23:34.894Z,29.34
2017-08-31T06:26:01.253Z,28.55
2017-08-31T06:28:27.578Z,28.28
2017-08-31T06:30:53.880Z,28.76
2017-08-31T06:33:20.259Z,29.86
2017-08-31T06:35:46.611Z,28.02
2017-08-31T06:38:12.933Z,26.33
2017-08-31T06:40:39.294Z,26.76
2017-08-31T06:43:05.625Z,27.04
2017-08-31T06:45:31.951Z,29.40
2017-08-31T06:47:58.317Z,27.80
2017-08-31T06:50:24.640Z,26.65
2017-08-31T06:52:50.937Z,25.80
2017-08-31T06:55:17.304Z,23.42
2017-08-31T06:57:43.623Z,22.65
2017-08-31T07:00:10.004Z,23.54
2017-08-31T07:02:36.431Z,21.61
2017-08-31T07:05:02.813Z,23.58
2017-08-31T07:07:29.200Z,24.06
2017-08-31T07:09:55.636Z,24.98
2017-08-31T07:12:22.032Z,23.22
2017-08-31T07:14:48.406Z,25.46
2017-08-31T07:17:14.839Z,24.46
2017-08-31T07:19:41.224Z,26.90
2017-08-31T07:22:07.514Z,27.69
2017-08-31T07:24:33.878Z,25.79
2017-08-31T07:27:00.264Z,25.84
2017-08-31T07:29:26.653Z,25.30
2017-08-31T07:31:53.085Z,26.94
2017-08-31T07:34:19.453Z,26.51
2017-08-31T07:36:45.766Z,26.14
2017-08-31T07:39:12.224Z,26.30
2017-08-31T07:41:38.604Z,27.10
2017-08-31T07:44:04.916Z,27.50
2017-08-31T07:46:31.277Z,26.74
2017-08-31T07:48:57.690Z,24.30
2017-08-31T07:51:24.046Z,22.74
2017-08-31T07:53:50.497Z,23.50
2017-08-31T07:56:16.893Z,23.52
2017-08-31T07:58:43.245Z,21.91
2017-08-31T08:01:09.672Z,22.15
2017-08-31T08:03:36.052Z,20.92
2017-08-31T08:06:02.407Z,19.48
2017-08-31T08:08:30.828Z,19.85
2017-08-31T08:10:57.206Z,21.22
2017-08-31T08:13:23.575Z,21.16
2017-08-31T08:15:50.038Z,20.60
2017-08-31T08:18:16.413Z,19.31
2017-08-31T08:20:42.782Z,16.41
2017-08-31T08:23:09.198Z,16.69
2017-08-31T08:25:35.582Z,15.76
2017-08-31T08:28:01.955Z,15.66
2017-08-31T08:30:28.368Z,17.79
2017-08-31T08:32:54.732Z,17.57
2017-08-31T08:35:21.103Z,18.11
2017-08-31T08:37:47.553Z,18.51
2017-08-31T08:40:13.953Z,18.86
2017-08-31T08:42:40.320Z,18.46
2017-08-31T08:45:06.751Z,19.80
2017-08-31T08:47:33.128Z,19.40
2017-08-31T08:49:59.505Z,18.34
2017-08-31T08:52:25.950Z,18.83
2017-08-31T08:54:52.333Z,20.78
2017-08-31T08:57:18.706Z,18.45
2017-08-31T08:59:45.147Z,17.38
2017-08-31T09:02:11.532Z,16.75
2017-08-31T09:04:37.934Z,15.97
2017-08-31T09:07:04.367Z,17.68
2017-08-31T09:09:30.739Z,17.92
2017-08-31T09:11:57.122Z,18.20
2017-08-31T09:14:23.558Z,18.97
2017-08-31T09:16:49.933Z,18.96
2017-08-31T09:19:16.373Z,19.48
2017-08-31T09:21:42.873Z,19.54
2017-08-31T09:24:09.320Z,19.61
2017-08-31T09:26:35.714Z,21.49
2017-08-31T09:29:02.156Z,20.97
2017-08-31T09:31:28.537Z,23.94
2017-08-31T09:33:54.923Z,21.75
2017-08-31T09:36:21.358Z,21.38
2017-08-31T09:38:47.742Z,23.83
2017-08-31T09:41:14.105Z,21.12
2017-08-31T09:43:40.523Z,18.83
2017-08-31T09:46:06.904Z,17.90
2017-08-31T09:48:33.287Z,17.96
2017-08-31T09:50:59.724Z,18.35
2017-08-31T09:53:26.113Z,19.43
2017-08-31T09:55:52.504Z,19.81
2017-08-31T09:58:18.952Z,18.17
2017-08-31T10:00:45.339Z,19.36
2017-08-31T10:03:11.716Z,19.54
2017-08-31T10:05:38.201Z,18.46
2017-08-31T10:08:04.571Z,18.12
2017-08-31T10:10:30.972Z,17.93
2017-08-31T10:12:57.433Z,18.05
2017-08-31T10:15:23.821Z,18.16
2017-08-31T10:17:50.213Z,19.31
2017-08-31T10:20:16.659Z,20.39
2017-08-31T10:22:43.034Z,17.93
2017-08-31T10:25:09.405Z,16.84
2017-08-31T10:27:35.829Z,17.99
2017-08-31T10:30:02.221Z,18.31
2017-08-31T10:32:28.601Z,17.55
2017-08-31T10:34:55.023Z,16.87
2017-08-31T10:37:21.397Z,16.68
2017-08-31T10:39:47.759Z,17.02
2017-08-31T10:42:14.193Z,17.92
2017-08-31T10:44:40.571Z,18.44
2017-08-31T10:47:06.961Z,19.66
2017-08-31T10:49:33.400Z,19.21
2017-08-31T10:51:59.769Z,20.17
2017-08-31T10:54:26.161Z,19.42
2017-08-31T10:56:52.605Z,19.24
2017-08-31T10:59:18.974Z,19.16
2017-08-31T11:01:45.353Z,20.47
2017-08-31T11:04:11.774Z,20.97
2017-08-31T11:06:38.133Z,21.20
2017-08-31T11:09:04.492Z,20.28
2017-08-31T11:11:30.909Z,21.17
2017-08-31T11:13:57.286Z,21.96
2017-08-31T11:16:23.684Z,22.08
2017-08-31T11:18:50.136Z,20.98
2017-08-31T11:21:16.519Z,20.99
2017-08-31T11:23:42.883Z,21.26
2017-08-31T11:26:09.324Z,21.47
2017-08-31T11:28:35.767Z,21.06
2017-08-31T11:31:02.221Z,19.76
2017-08-31T11:33:28.768Z,19.16
2017-08-31T11:35:55.212Z,19.54
2017-08-31T11:38:21.465Z,19.26
2017-08-31T11:40:47.882Z,16.97
2017-08-31T11:43:14.257Z,16.26
2017-08-31T11:45:40.638Z,16.83
2017-08-31T11:48:07.061Z,16.13
2017-08-31T11:50:33.425Z,16.32
2017-08-31T11:52:59.807Z,16.10
2017-08-31T11:55:26.273Z,17.36
2017-08-31T11:57:52.649Z,19.62
2017-08-31T12:00:19.033Z,18.40
2017-08-31T12:02:45.497Z,19.65
2017-08-31T12:05:11.876Z,21.18
2017-08-31T12:07:38.253Z,21.71
2017-08-31T12:10:04.733Z,19.09
2017-08-31T12:12:31.110Z,18.88
2017-08-31T12:14:57.477Z,19.20
2017-08-31T12:17:23.901Z,20.74
2017-08-31T12:19:50.287Z,19.54
2017-08-31T12:22:16.676Z,18.76
2017-08-31T12:24:43.090Z,18.61
2017-08-31T12:27:09.465Z,19.80
2017-08-31T12:29:35.846Z,19.24
2017-08-31T12:32:02.289Z,19.24
2017-08-31T12:34:28.693Z,20.40
2017-08-31T12:36:55.075Z,19.26
2017-08-31T12:39:21.493Z,18.64
2017-08-31T12:41:47.880Z,17.71
2017-08-31T12:44:14.271Z,18.17
2017-08-31T12:46:40.713Z,18.24
2017-08-31T12:49:07.084Z,18.06
2017-08-31T12:51:33.453Z,16.96
2017-08-31T12:53:59.885Z,17.30
2017-08-31T12:56:26.256Z,18.52
2017-08-31T12:58:52.633Z,19.29
2017-08-31T13:01:19.049Z,19.20
2017-08-31T13:03:45.490Z,19.68
2017-08-31T13:06:11.856Z,18.35
2017-08-31T13:08:38.296Z,17.58
2017-08-31T13:11:04.663Z,17.30
2017-08-31T13:13:31.051Z,17.63
2017-08-31T13:15:57.494Z,18.55
2017-08-31T13:18:23.856Z,20.99
2017-08-31T13:20:50.236Z,21.48
2017-08-31T13:23:16.661Z,22.64
2017-08-31T13:25:43.043Z,22.97
2017-08-31T13:28:09.423Z,23.84
2017-08-31T13:30:35.863Z,23.53
2017-08-31T13:33:02.169Z,24.18
2017-08-31T13:35:28.487Z,24.84
2017-08-31T13:37:54.847Z,25.31
2017-08-31T13:40:21.159Z,24.42
2017-08-31T13:42:47.476Z,24.48
2017-08-31T13:45:13.838Z,24.63
2017-08-31T13:47:40.156Z,24.03
2017-08-31T13:50:06.450Z,24.70
2017-08-31T13:52:32.799Z,24.88
2017-08-31T13:54:59.090Z,26.02
2017-08-31T13:57:25.405Z,24.61
2017-08-31T13:59:51.768Z,25.46
2017-08-31T14:02:18.073Z,25.18
2017-08-31T14:04:44.400Z,25.50
2017-08-31T14:07:10.769Z,26.10
2017-08-31T14:09:37.076Z,25.46
2017-08-31T14:12:03.380Z,26.49
2017-08-31T14:14:29.745Z,25.62
2017-08-31T14:16:56.059Z,26.71
2017-08-31T14:19:22.357Z,27.49
2017-08-31T14:21:48.736Z,26.69
2017-08-31T14:24:15.048Z,26.09
2017-08-31T14:26:41.364Z,27.73
2017-08-31T14:29:07.736Z,28.10
2017-08-31T14:31:34.051Z,27.06
2017-08-31T14:34:00.361Z,26.48
2017-08-31T14:36:26.730Z,25.56
2017-08-31T14:38:53.037Z,25.98
2017-08-31T14:41:19.352Z,26.41
2017-08-31T14:43:45.726Z,26.71
2017-08-31T14:46:12.038Z,25.97
2017-08-31T14:48:38.355Z,26.17
2017-08-31T14:51:04.729Z,25.88
2017-08-31T14:53:31.062Z,25.81
2017-08-31T14:55:57.371Z,25.94
2017-08-31T14:58:23.725Z,25.98
2017-08-31T15:00:50.033Z,26.16
2017-08-31T15:03:16.402Z,26.43
2017-08-31T15:05:42.754Z,25.96
2017-08-31T15:08:09.071Z,26.62
2017-08-31T15:10:35.362Z,26.47
2017-08-31T15:13:01.709Z,26.80
2017-08-31T15:15:28.031Z,26.24
2017-08-31T15:17:54.351Z,26.43
2017-08-31T15:20:20.729Z,26.34
2017-08-31T15:22:47.062Z,26.66
2017-08-31T15:25:13.355Z,26.99
2017-08-31T15:27:39.721Z,28.12
2017-08-31T15:30:06.036Z,28.05
2017-08-31T15:32:32.328Z,27.43
2017-08-31T15:34:58.660Z,27.72
2017-08-31T15:37:24.960Z,27.29
2017-08-31T15:39:51.274Z,27.65
2017-08-31T15:42:17.609Z,27.26
2017-08-31T15:44:43.950Z,28.76
2017-08-31T15:47:10.369Z,30.10
2017-08-31T15:49:36.707Z,29.72
2017-08-31T15:52:02.999Z,29.81
2017-08-31T15:54:29.291Z,29.20
2017-08-31T15:56:55.620Z,30.23
2017-08-31T15:59:21.920Z,30.36
2017-08-31T16:01:48.220Z,31.22
2017-08-31T16:04:14.588Z,30.32
2017-08-31T16:06:40.914Z,31.21
2017-08-31T16:09:07.228Z,31.82
2017-08-31T16:11:33.593Z,31.74
2017-08-31T16:13:59.880Z,31.18
2017-08-31T16:16:26.174Z,32.26
2017-08-31T16:18:52.670Z,32.24
2017-08-31T16:21:18.965Z,32.90
2017-08-31T16:23:45.277Z,33.49
2017-08-31T16:26:11.642Z,34.72
2017-08-31T16:28:37.943Z,34.97
2017-08-31T16:31:04.246Z,35.27
2017-08-31T16:33:30.593Z,42.93
2017-08-31T16:35:56.883Z,46.01
2017-08-31T16:38:23.191Z,48.40
2017-08-31T16:40:49.745Z,49.52
2017-08-31T16:43:16.042Z,49.31
2017-08-31T16:45:42.353Z,50.94
2017-08-31T16:48:08.708Z,49.08
2017-08-31T16:50:35.067Z,47.75
2017-08-31T16:53:01.693Z,49.56
2017-08-31T16:55:28.307Z,53.02
2017-08-31T16:57:54.775Z,53.02
2017-08-31T17:00:21.417Z,52.84
2017-08-31T17:02:48.007Z,53.88
2017-08-31T17:05:14.483Z,55.21
2017-08-31T17:07:40.926Z,55.42
2017-08-31T17:10:07.333Z,55.85
2017-08-31T17:12:33.999Z,56.74
2017-08-31T17:15:00.431Z,55.25
2017-08-31T17:17:27.008Z,54.46
2017-08-31T17:19:53.703Z,58.93
2017-08-31T17:22:20.136Z,57.72
2017-08-31T17:24:46.738Z,60.76
2017-08-31T17:27:13.415Z,59.87
2017-08-31T17:29:40.018Z,60.08
2017-08-31T17:32:06.540Z,62.74
2017-08-31T17:34:32.917Z,63.69
2017-08-31T17:36:59.351Z,59.57
2017-08-31T17:39:25.987Z,62.36
2017-08-31T17:41:52.265Z,60.58
2017-08-31T17:44:18.723Z,62.87
2017-08-31T17:46:45.087Z,66.76
2017-08-31T17:49:11.527Z,64.16
2017-08-31T17:51:38.155Z,68.59
2017-08-31T17:54:04.743Z,64.81
2017-08-31T17:56:31.209Z,66.18
2017-08-31T17:58:57.526Z,66.79
2017-08-31T18:01:23.868Z,63.86
2017-08-31T18:03:50.408Z,67.90
2017-08-31T18:06:16.753Z,70.40
2017-08-31T18:08:43.181Z,71.93
2017-08-31T18:11:09.620Z,71.54
2017-08-31T18:13:36.103Z,71.10
2017-08-31T18:16:02.668Z,70.56
2017-08-31T18:18:28.956Z,71.76
2017-08-31T18:20:55.345Z,71.31
2017-08-31T18:23:21.991Z,72.37
2017-08-31T18:25:48.616Z,66.70
2017-08-31T18:28:15.109Z,69.71
2017-08-31T18:30:41.675Z,70.86
2017-08-31T18:33:08.133Z,70.11
2017-08-31T18:35:34.638Z,70.79
2017-08-31T18:38:00.975Z,71.52
2017-08-31T18:40:27.614Z,70.57
2017-08-31T18:42:53.905Z,69.78
2017-08-31T18:45:20.327Z,71.84
2017-08-31T18:47:46.797Z,72.88
2017-08-31T18:50:13.171Z,73.57
2017-08-31T18:52:39.597Z,71.24
2017-08-31T18:55:06.093Z,72.78
2017-08-31T18:57:32.638Z,73.99
2017-08-31T18:59:59.097Z,70.93
2017-08-31T19:02:25.538Z,70.37
2017-08-31T19:04:51.978Z,71.28
2017-08-31T19:07:18.318Z,69.76
2017-08-31T19:09:44.921Z,72.00
2017-08-31T19:12:11.342Z,72.47
2017-08-31T19:14:37.880Z,72.24
2017-08-31T19:17:04.186Z,73.45
2017-08-31T19:19:30.762Z,71.58
2017-08-31T19:21:57.286Z,68.00
2017-08-31T19:24:23.986Z,67.97
2017-08-31T19:26:50.544Z,67.73
2017-08-31T19:29:16.921Z,67.71
2017-08-31T19:31:43.347Z,69.89
2017-08-31T19:34:09.787Z,67.61
2017-08-31T19:36:36.355Z,64.58
2017-08-31T19:39:02.886Z,64.59
2017-08-31T19:41:29.466Z,66.17
2017-08-31T19:43:55.989Z,64.67
2017-08-31T19:46:22.430Z,62.52
2017-08-31T19:48:48.946Z,65.43
2017-08-31T19:51:15.486Z,62.68
2017-08-31T19:53:42.071Z,62.78
2017-08-31T19:56:08.490Z,62.71
2017-08-31T19:58:34.854Z,66.12
2017-08-31T20:01:01.332Z,67.18
2017-08-31T20:03:28.011Z,67.67
2017-08-31T20:05:54.541Z,70.94
2017-08-31T20:08:20.958Z,71.70
2017-08-31T20:10:47.411Z,72.70
2017-08-31T20:13:13.778Z,71.14
2017-08-31T20:15:40.279Z,72.31
2017-08-31T20:18:06.955Z,73.29
2017-08-31T20:20:33.492Z,72.30
2017-08-31T20:23:00.182Z,74.56
2017-08-31T20:25:26.827Z,75.68
2017-08-31T20:27:53.169Z,75.71
2017-08-31T20:30:19.464Z,75.91
2017-08-31T20:32:45.924Z,76.72
2017-08-31T20:35:12.521Z,76.53
2017-08-31T20:37:39.198Z,77.96
2017-08-31T20:40:05.831Z,78.05
2017-08-31T20:42:32.447Z,77.11
2017-08-31T20:44:59.112Z,77.71
2017-08-31T20:47:25.729Z,76.85
2017-08-31T20:49:52.347Z,76.03
2017-08-31T20:52:18.824Z,76.22
2017-08-31T20:54:45.240Z,73.74
2017-08-31T20:57:11.647Z,73.72
2017-08-31T20:59:38.111Z,73.09
2017-08-31T21:02:05.328Z,72.84
2017-08-31T21:04:31.779Z,73.05
2017-08-31T21:06:58.111Z,74.71
2017-08-31T21:09:24.349Z,75.96
2017-08-31T21:11:50.656Z,74.48
2017-08-31T21:14:16.901Z,74.69
2017-08-31T21:16:43.146Z,75.86
2017-08-31T21:19:09.477Z,74.31
2017-08-31T21:21:35.726Z,73.75
2017-08-31T21:24:01.969Z,74.79
2017-08-31T21:26:28.261Z,72.33
2017-08-31T21:28:54.491Z,72.07
2017-08-31T21:31:20.913Z,76.52
2017-08-31T21:33:47.214Z,77.04
2017-08-31T21:36:13.452Z,78.01
2017-08-31T21:38:39.687Z,77.51
2017-08-31T21:41:05.988Z,78.24
2017-08-31T21:43:32.225Z,78.75
2017-08-31T21:45:58.470Z,79.45
2017-08-31T21:48:24.770Z,78.29
2017-08-31T21:50:51.035Z,79.60
2017-08-31T21:53:17.270Z,80.06
2017-08-31T21:55:43.555Z,79.67
2017-08-31T21:58:09.808Z,80.73
2017-08-31T22:00:36.063Z,81.28
2017-08-31T22:03:02.397Z,81.60
2017-08-31T22:05:28.740Z,81.95
2017-08-31T22:07:55.009Z,80.87
2017-08-31T22:10:21.344Z,80.88
2017-08-31T22:12:47.610Z,80.77
2017-08-31T22:15:13.864Z,81.79
2017-08-31T22:17:40.176Z,82.55
2017-08-31T22:20:06.439Z,81.96
2017-08-31T22:22:32.698Z,81.88
2017-08-31T22:24:59.020Z,82.22
2017-08-31T22:27:25.310Z,81.86
2017-08-31T22:29:51.575Z,82.09
2017-08-31T22:32:17.904Z,82.03
2017-08-31T22:34:44.194Z,82.53
2017-08-31T22:37:10.450Z,82.50
2017-08-31T22:39:36.769Z,82.65
2017-08-31T22:42:03.032Z,82.86
2017-08-31T22:44:29.318Z,83.45
2017-08-31T22:46:55.913Z,83.21
2017-08-31T22:49:22.204Z,83.67
2017-08-31T22:51:48.728Z,83.81
2017-08-31T22:54:15.371Z,83.87
2017-08-31T22:56:41.980Z,84.08
2017-08-31T22:59:08.647Z,84.26
2017-08-31T23:01:35.287Z,84.45
2017-08-31T23:04:01.906Z,83.98
2017-08-31T23:06:28.561Z,84.05
2017-08-31T23:08:54.989Z,84.53
2017-08-31T23:11:21.485Z,84.75
2017-08-31T23:13:47.929Z,84.19
2017-08-31T23:16:14.703Z,84.52
2017-08-31T23:18:41.307Z,84.43
2017-08-31T23:21:07.770Z,83.64
2017-08-31T23:23:34.363Z,83.71
2017-08-31T23:26:01.052Z,84.15
2017-08-31T23:28:27.483Z,84.63
2017-08-31T23:30:53.921Z,85.05
2017-08-31T23:33:20.534Z,85.23
2017-08-31T23:35:47.019Z,84.94
2017-08-31T23:38:13.570Z,85.25
2017-08-31T23:40:40.266Z,85.34
2017-08-31T23:43:06.878Z,85.30
2017-08-31T23:45:33.498Z,85.03
2017-08-31T23:48:00.182Z,85.36
2017-08-31T23:50:26.608Z,84.94
2017-08-31T23:52:53.250Z,84.80
2017-08-31T23:55:19.684Z,85.59
2017-08-31T23:57:46.302Z,85.26
